sensor_id;sensor_type;location;lat;lon;timestamp;temperature;humidity
38854;DHT22;24606;51.992;4.198;2024-03-02T00:03:15;13.20;99.90
38854;DHT22;24606;51.992;4.198;2024-03-02T00:08:23;13.60;99.90
38854;DHT22;24606;51.992;4.198;2024-03-02T00:13:26;14.00;99.90
38854;DHT22;24606;51.992;4.198;2024-03-02T00:18:34;14.50;99.90
38854;DHT22;24606;51.992;4.198;2024-03-02T00:23:37;14.90;99.90
38854;DHT22;24606;51.992;4.198;2024-03-02T00:28:40;14.00;99.90
38854;DHT22;24606;51.992;4.198;2024-03-02T00:33:46;13.90;99.90
38854;DHT22;24606;51.992;4.198;2024-03-02T00:38:50;14.10;99.90
38854;DHT22;24606;51.992;4.198;2024-03-02T00:44:02;15.50;99.90
38854;DHT22;24606;51.992;4.198;2024-03-02T00:49:12;15.50;99.90
38854;DHT22;24606;51.992;4.198;2024-03-02T00:54:23;15.80;99.90
38854;DHT22;24606;51.992;4.198;2024-03-02T00:59:25;15.70;99.90
38854;DHT22;24606;51.992;4.198;2024-03-02T01:04:27;15.70;99.90
38854;DHT22;24606;51.992;4.198;2024-03-02T01:09:30;15.30;99.90
38854;DHT22;24606;51.992;4.198;2024-03-02T01:14:32;15.70;99.90
38854;DHT22;24606;51.992;4.198;2024-03-02T01:19:36;15.50;99.90
38854;DHT22;24606;51.992;4.198;2024-03-02T01:24:39;15.90;99.90
38854;DHT22;24606;51.992;4.198;2024-03-02T01:29:42;15.40;99.90
38854;DHT22;24606;51.992;4.198;2024-03-02T01:34:44;15.70;99.90
38854;DHT22;24606;51.992;4.198;2024-03-02T01:39:47;15.80;99.90
38854;DHT22;24606;51.992;4.198;2024-03-02T01:44:49;15.70;99.90
38854;DHT22;24606;51.992;4.198;2024-03-02T01:49:51;15.90;99.90
38854;DHT22;24606;51.992;4.198;2024-03-02T01:54:55;15.90;99.90
38854;DHT22;24606;51.992;4.198;2024-03-02T01:59:57;15.80;99.90
38854;DHT22;24606;51.992;4.198;2024-03-02T02:05:00;15.90;99.90
38854;DHT22;24606;51.992;4.198;2024-03-02T02:10:04;15.80;99.90
38854;DHT22;24606;51.992;4.198;2024-03-02T02:15:21;15.80;99.90
38854;DHT22;24606;51.992;4.198;2024-03-02T02:20:23;15.60;99.90
38854;DHT22;24606;51.992;4.198;2024-03-02T02:25:27;15.00;99.90
38854;DHT22;24606;51.992;4.198;2024-03-02T02:30:31;15.20;99.90
38854;DHT22;24606;51.992;4.198;2024-03-02T02:35:33;15.10;99.90
38854;DHT22;24606;51.992;4.198;2024-03-02T02:40:36;15.60;99.90
38854;DHT22;24606;51.992;4.198;2024-03-02T02:45:38;15.80;99.90
38854;DHT22;24606;51.992;4.198;2024-03-02T02:50:41;15.80;99.90
38854;DHT22;24606;51.992;4.198;2024-03-02T02:55:45;15.70;99.90
38854;DHT22;24606;51.992;4.198;2024-03-02T03:00:47;15.70;99.90
38854;DHT22;24606;51.992;4.198;2024-03-02T03:05:49;15.70;99.90
38854;DHT22;24606;51.992;4.198;2024-03-02T03:10:53;15.40;99.90
38854;DHT22;24606;51.992;4.198;2024-03-02T03:15:55;15.30;99.90
38854;DHT22;24606;51.992;4.198;2024-03-02T03:20:57;15.30;99.90
38854;DHT22;24606;51.992;4.198;2024-03-02T03:26:00;15.70;99.90
38854;DHT22;24606;51.992;4.198;2024-03-02T03:31:03;15.50;99.90
38854;DHT22;24606;51.992;4.198;2024-03-02T03:36:05;15.60;99.90
38854;DHT22;24606;51.992;4.198;2024-03-02T03:41:08;15.40;99.90
38854;DHT22;24606;51.992;4.198;2024-03-02T03:46:10;15.30;99.90
38854;DHT22;24606;51.992;4.198;2024-03-02T03:51:12;15.20;99.90
38854;DHT22;24606;51.992;4.198;2024-03-02T03:56:16;15.30;99.90
38854;DHT22;24606;51.992;4.198;2024-03-02T04:15:30;15.60;99.90
38854;DHT22;24606;51.992;4.198;2024-03-02T04:20:35;15.20;99.90
38854;DHT22;24606;51.992;4.198;2024-03-02T04:25:37;15.30;99.90
38854;DHT22;24606;51.992;4.198;2024-03-02T04:30:40;15.40;99.90
38854;DHT22;24606;51.992;4.198;2024-03-02T04:35:42;15.50;99.90
38854;DHT22;24606;51.992;4.198;2024-03-02T04:40:44;15.10;99.90
38854;DHT22;24606;51.992;4.198;2024-03-02T04:45:48;15.50;99.90
38854;DHT22;24606;51.992;4.198;2024-03-02T04:50:50;15.50;99.90
38854;DHT22;24606;51.992;4.198;2024-03-02T04:55:51;15.20;99.90
38854;DHT22;24606;51.992;4.198;2024-03-02T05:01:12;15.10;99.90
38854;DHT22;24606;51.992;4.198;2024-03-02T05:06:14;15.30;99.90
38854;DHT22;24606;51.992;4.198;2024-03-02T05:11:16;15.30;99.90
38854;DHT22;24606;51.992;4.198;2024-03-02T05:16:46;15.60;99.90
38854;DHT22;24606;51.992;4.198;2024-03-02T05:21:48;15.60;99.90
38854;DHT22;24606;51.992;4.198;2024-03-02T05:26:50;15.20;99.90
38854;DHT22;24606;51.992;4.198;2024-03-02T05:31:53;15.60;99.90
38854;DHT22;24606;51.992;4.198;2024-03-02T05:36:56;15.60;99.90
38854;DHT22;24606;51.992;4.198;2024-03-02T05:41:59;15.90;99.90
38854;DHT22;24606;51.992;4.198;2024-03-02T05:47:02;15.60;99.90
38854;DHT22;24606;51.992;4.198;2024-03-02T05:52:04;15.70;99.90
38854;DHT22;24606;51.992;4.198;2024-03-02T05:57:07;15.70;99.90
38854;DHT22;24606;51.992;4.198;2024-03-02T06:02:38;16.00;99.90
38854;DHT22;24606;51.992;4.198;2024-03-02T06:07:41;16.00;99.90
38854;DHT22;24606;51.992;4.198;2024-03-02T06:12:43;16.00;99.90
38854;DHT22;24606;51.992;4.198;2024-03-02T06:17:46;16.00;99.90
38854;DHT22;24606;51.992;4.198;2024-03-02T06:22:48;16.10;99.90
38854;DHT22;24606;51.992;4.198;2024-03-02T06:27:50;16.20;99.90
38854;DHT22;24606;51.992;4.198;2024-03-02T06:32:54;16.20;99.90
38854;DHT22;24606;51.992;4.198;2024-03-02T06:37:56;16.30;99.90
38854;DHT22;24606;51.992;4.198;2024-03-02T06:42:58;16.10;99.90
38854;DHT22;24606;51.992;4.198;2024-03-02T06:48:02;16.10;99.90
38854;DHT22;24606;51.992;4.198;2024-03-02T06:53:04;16.10;99.90
38854;DHT22;24606;51.992;4.198;2024-03-02T06:58:06;16.00;99.90
38854;DHT22;24606;51.992;4.198;2024-03-02T07:03:09;16.30;99.90
38854;DHT22;24606;51.992;4.198;2024-03-02T07:08:11;15.90;99.90
38854;DHT22;24606;51.992;4.198;2024-03-02T07:13:13;16.10;99.90
38854;DHT22;24606;51.992;4.198;2024-03-02T07:18:17;15.80;99.90
38854;DHT22;24606;51.992;4.198;2024-03-02T07:23:19;15.90;99.90
38854;DHT22;24606;51.992;4.198;2024-03-02T07:28:24;15.90;99.90
38854;DHT22;24606;51.992;4.198;2024-03-02T07:33:27;16.00;99.90
38854;DHT22;24606;51.992;4.198;2024-03-02T07:38:29;16.20;99.90
38854;DHT22;24606;51.992;4.198;2024-03-02T07:43:31;16.20;99.90
38854;DHT22;24606;51.992;4.198;2024-03-02T07:48:36;16.00;99.90
38854;DHT22;24606;51.992;4.198;2024-03-02T07:53:38;16.20;99.90
38854;DHT22;24606;51.992;4.198;2024-03-02T07:58:40;16.00;99.90
38854;DHT22;24606;51.992;4.198;2024-03-02T08:03:44;16.00;99.90
38854;DHT22;24606;51.992;4.198;2024-03-02T08:08:52;16.10;99.90
38854;DHT22;24606;51.992;4.198;2024-03-02T08:13:54;16.20;99.90
38854;DHT22;24606;51.992;4.198;2024-03-02T08:18:58;16.20;99.90
38854;DHT22;24606;51.992;4.198;2024-03-02T08:24:00;16.10;99.90
38854;DHT22;24606;51.992;4.198;2024-03-02T08:29:03;16.30;99.90
38854;DHT22;24606;51.992;4.198;2024-03-02T08:34:06;16.30;99.90
38854;DHT22;24606;51.992;4.198;2024-03-02T08:39:09;16.10;99.90
38854;DHT22;24606;51.992;4.198;2024-03-02T08:44:16;16.40;99.90
38854;DHT22;24606;51.992;4.198;2024-03-02T08:49:19;16.20;99.90
38854;DHT22;24606;51.992;4.198;2024-03-02T08:54:21;16.40;99.90
38854;DHT22;24606;51.992;4.198;2024-03-02T08:59:23;16.50;99.90
38854;DHT22;24606;51.992;4.198;2024-03-02T09:04:27;16.70;99.90
38854;DHT22;24606;51.992;4.198;2024-03-02T09:09:30;16.40;99.90
38854;DHT22;24606;51.992;4.198;2024-03-02T09:14:33;16.70;99.90
38854;DHT22;24606;51.992;4.198;2024-03-02T09:19:37;16.70;99.90
38854;DHT22;24606;51.992;4.198;2024-03-02T09:24:39;16.70;99.90
38854;DHT22;24606;51.992;4.198;2024-03-02T09:29:41;16.60;99.90
38854;DHT22;24606;51.992;4.198;2024-03-02T09:34:44;16.70;99.90
38854;DHT22;24606;51.992;4.198;2024-03-02T09:39:46;17.00;99.90
38854;DHT22;24606;51.992;4.198;2024-03-02T09:44:48;16.70;99.90
38854;DHT22;24606;51.992;4.198;2024-03-02T09:49:51;16.80;99.90
38854;DHT22;24606;51.992;4.198;2024-03-02T09:54:54;16.90;99.90
38854;DHT22;24606;51.992;4.198;2024-03-02T09:59:56;16.60;99.90
38854;DHT22;24606;51.992;4.198;2024-03-02T10:04:59;16.80;99.90
38854;DHT22;24606;51.992;4.198;2024-03-02T10:10:13;16.90;99.90
38854;DHT22;24606;51.992;4.198;2024-03-02T10:15:23;17.00;99.90
38854;DHT22;24606;51.992;4.198;2024-03-02T10:20:27;17.10;99.90
38854;DHT22;24606;51.992;4.198;2024-03-02T10:25:30;17.00;99.90
38854;DHT22;24606;51.992;4.198;2024-03-02T10:30:33;17.00;99.90
38854;DHT22;24606;51.992;4.198;2024-03-02T10:35:37;17.20;99.90
38854;DHT22;24606;51.992;4.198;2024-03-02T10:40:40;17.20;99.90
38854;DHT22;24606;51.992;4.198;2024-03-02T10:45:42;17.40;99.90
38854;DHT22;24606;51.992;4.198;2024-03-02T10:50:46;17.40;99.90
38854;DHT22;24606;51.992;4.198;2024-03-02T10:55:52;17.30;99.90
38854;DHT22;24606;51.992;4.198;2024-03-02T11:01:03;17.30;99.90
38854;DHT22;24606;51.992;4.198;2024-03-02T11:06:09;17.30;99.90
38854;DHT22;24606;51.992;4.198;2024-03-02T11:11:15;17.40;99.90
38854;DHT22;24606;51.992;4.198;2024-03-02T11:16:27;17.40;99.90
38854;DHT22;24606;51.992;4.198;2024-03-02T11:21:37;17.50;99.90
38854;DHT22;24606;51.992;4.198;2024-03-02T11:26:40;17.40;99.90
38854;DHT22;24606;51.992;4.198;2024-03-02T11:31:57;17.70;99.90
38854;DHT22;24606;51.992;4.198;2024-03-02T11:37:04;17.80;99.90
38854;DHT22;24606;51.992;4.198;2024-03-02T11:42:07;18.00;99.90
38854;DHT22;24606;51.992;4.198;2024-03-02T11:47:12;17.80;99.90
38854;DHT22;24606;51.992;4.198;2024-03-02T11:52:17;17.90;99.90
38854;DHT22;24606;51.992;4.198;2024-03-02T11:57:21;17.90;99.90
38854;DHT22;24606;51.992;4.198;2024-03-02T12:02:23;17.90;99.90
38854;DHT22;24606;51.992;4.198;2024-03-02T12:07:26;18.10;99.90
38854;DHT22;24606;51.992;4.198;2024-03-02T12:12:28;18.10;99.90
38854;DHT22;24606;51.992;4.198;2024-03-02T12:17:31;18.00;99.90
38854;DHT22;24606;51.992;4.198;2024-03-02T12:22:34;18.30;99.90
38854;DHT22;24606;51.992;4.198;2024-03-02T12:27:37;18.00;99.90
38854;DHT22;24606;51.992;4.198;2024-03-02T12:32:40;18.20;99.90
38854;DHT22;24606;51.992;4.198;2024-03-02T12:37:45;18.30;99.90
38854;DHT22;24606;51.992;4.198;2024-03-02T12:42:47;18.30;99.90
38854;DHT22;24606;51.992;4.198;2024-03-02T12:47:50;18.20;99.90
38854;DHT22;24606;51.992;4.198;2024-03-02T12:52:54;18.50;99.90
38854;DHT22;24606;51.992;4.198;2024-03-02T12:57:56;18.60;99.90
38854;DHT22;24606;51.992;4.198;2024-03-02T13:02:59;18.70;99.90
38854;DHT22;24606;51.992;4.198;2024-03-02T13:08:06;18.80;99.90
38854;DHT22;24606;51.992;4.198;2024-03-02T13:13:08;19.00;99.90
38854;DHT22;24606;51.992;4.198;2024-03-02T13:18:11;18.90;99.90
38854;DHT22;24606;51.992;4.198;2024-03-02T13:23:14;19.00;99.90
38854;DHT22;24606;51.992;4.198;2024-03-02T13:28:16;19.10;99.90
38854;DHT22;24606;51.992;4.198;2024-03-02T13:33:18;19.10;99.90
38854;DHT22;24606;51.992;4.198;2024-03-02T13:38:24;19.30;99.90
38854;DHT22;24606;51.992;4.198;2024-03-02T13:43:26;19.30;99.90
38854;DHT22;24606;51.992;4.198;2024-03-02T13:48:32;19.30;99.90
38854;DHT22;24606;51.992;4.198;2024-03-02T13:53:36;19.30;99.90
38854;DHT22;24606;51.992;4.198;2024-03-02T13:58:38;19.40;99.90
38854;DHT22;24606;51.992;4.198;2024-03-02T14:03:40;19.40;99.90
38854;DHT22;24606;51.992;4.198;2024-03-02T14:08:43;19.40;99.90
38854;DHT22;24606;51.992;4.198;2024-03-02T14:13:46;19.50;99.90
38854;DHT22;24606;51.992;4.198;2024-03-02T14:18:50;19.50;99.90
38854;DHT22;24606;51.992;4.198;2024-03-02T14:23:53;19.60;99.90
38854;DHT22;24606;51.992;4.198;2024-03-02T14:28:56;19.30;99.90
38854;DHT22;24606;51.992;4.198;2024-03-02T14:33:58;19.00;99.90
38854;DHT22;24606;51.992;4.198;2024-03-02T14:39:01;19.10;99.90
38854;DHT22;24606;51.992;4.198;2024-03-02T14:44:04;19.10;99.90
38854;DHT22;24606;51.992;4.198;2024-03-02T14:49:07;19.10;99.90
38854;DHT22;24606;51.992;4.198;2024-03-02T14:54:10;18.80;99.90
38854;DHT22;24606;51.992;4.198;2024-03-02T14:59:12;18.70;99.90
38854;DHT22;24606;51.992;4.198;2024-03-02T15:04:14;19.20;99.90
38854;DHT22;24606;51.992;4.198;2024-03-02T15:09:21;19.30;99.90
38854;DHT22;24606;51.992;4.198;2024-03-02T15:14:23;19.40;99.90
38854;DHT22;24606;51.992;4.198;2024-03-02T15:19:25;19.40;99.90
38854;DHT22;24606;51.992;4.198;2024-03-02T15:24:28;19.40;99.90
38854;DHT22;24606;51.992;4.198;2024-03-02T15:29:30;19.30;99.90
38854;DHT22;24606;51.992;4.198;2024-03-02T15:34:32;19.40;99.90
38854;DHT22;24606;51.992;4.198;2024-03-02T15:39:35;19.20;99.90
38854;DHT22;24606;51.992;4.198;2024-03-02T15:44:38;19.30;99.90
38854;DHT22;24606;51.992;4.198;2024-03-02T15:49:40;19.40;99.90
38854;DHT22;24606;51.992;4.198;2024-03-02T15:54:43;19.10;99.90
38854;DHT22;24606;51.992;4.198;2024-03-02T15:59:45;19.20;99.90
38854;DHT22;24606;51.992;4.198;2024-03-02T16:04:47;19.20;99.90
38854;DHT22;24606;51.992;4.198;2024-03-02T16:09:50;19.30;99.90
38854;DHT22;24606;51.992;4.198;2024-03-02T16:14:52;19.20;99.90
38854;DHT22;24606;51.992;4.198;2024-03-02T16:19:54;19.40;99.90
38854;DHT22;24606;51.992;4.198;2024-03-02T16:24:59;19.40;99.90
38854;DHT22;24606;51.992;4.198;2024-03-02T16:30:01;19.20;99.90
38854;DHT22;24606;51.992;4.198;2024-03-02T16:35:04;19.20;99.90
38854;DHT22;24606;51.992;4.198;2024-03-02T16:40:09;19.20;99.90
38854;DHT22;24606;51.992;4.198;2024-03-02T16:45:11;19.20;99.90
38854;DHT22;24606;51.992;4.198;2024-03-02T16:50:14;19.20;99.90
38854;DHT22;24606;51.992;4.198;2024-03-02T16:55:18;19.40;99.90
38854;DHT22;24606;51.992;4.198;2024-03-02T17:00:20;19.30;99.90
38854;DHT22;24606;51.992;4.198;2024-03-02T17:05:22;19.30;99.90
38854;DHT22;24606;51.992;4.198;2024-03-02T17:10:26;19.20;99.90
38854;DHT22;24606;51.992;4.198;2024-03-02T17:15:28;18.90;99.90
38854;DHT22;24606;51.992;4.198;2024-03-02T17:20:30;18.40;99.90
38854;DHT22;24606;51.992;4.198;2024-03-02T17:25:33;18.60;99.90
38854;DHT22;24606;51.992;4.198;2024-03-02T17:30:36;19.30;99.90
38854;DHT22;24606;51.992;4.198;2024-03-02T17:35:38;18.90;99.90
38854;DHT22;24606;51.992;4.198;2024-03-02T17:40:41;18.60;99.90
38854;DHT22;24606;51.992;4.198;2024-03-02T17:45:45;18.50;99.90
38854;DHT22;24606;51.992;4.198;2024-03-02T17:50:47;18.20;99.90
38854;DHT22;24606;51.992;4.198;2024-03-02T17:55:52;17.90;99.90
38854;DHT22;24606;51.992;4.198;2024-03-02T18:00:54;17.90;99.90
38854;DHT22;24606;51.992;4.198;2024-03-02T18:05:56;18.50;99.90
38854;DHT22;24606;51.992;4.198;2024-03-02T18:10:59;18.70;99.90
38854;DHT22;24606;51.992;4.198;2024-03-02T18:16:02;18.80;99.90
38854;DHT22;24606;51.992;4.198;2024-03-02T18:21:04;18.20;99.90
38854;DHT22;24606;51.992;4.198;2024-03-02T18:26:07;17.90;99.90
38854;DHT22;24606;51.992;4.198;2024-03-02T18:31:09;17.50;99.90
38854;DHT22;24606;51.992;4.198;2024-03-02T18:36:11;17.70;99.90
38854;DHT22;24606;51.992;4.198;2024-03-02T18:41:15;17.60;99.90
38854;DHT22;24606;51.992;4.198;2024-03-02T18:46:17;17.60;99.90
38854;DHT22;24606;51.992;4.198;2024-03-02T18:51:20;17.50;99.90
38854;DHT22;24606;51.992;4.198;2024-03-02T18:56:25;17.70;99.90
38854;DHT22;24606;51.992;4.198;2024-03-02T19:01:27;17.40;99.90
38854;DHT22;24606;51.992;4.198;2024-03-02T19:06:29;17.60;99.90
38854;DHT22;24606;51.992;4.198;2024-03-02T19:11:32;17.60;99.90
38854;DHT22;24606;51.992;4.198;2024-03-02T19:16:34;17.70;99.90
38854;DHT22;24606;51.992;4.198;2024-03-02T19:21:36;17.80;99.90
38854;DHT22;24606;51.992;4.198;2024-03-02T19:26:40;18.20;99.90
38854;DHT22;24606;51.992;4.198;2024-03-02T19:31:43;18.80;99.90
38854;DHT22;24606;51.992;4.198;2024-03-02T19:36:45;18.70;99.90
38854;DHT22;24606;51.992;4.198;2024-03-02T19:41:48;18.90;99.90
38854;DHT22;24606;51.992;4.198;2024-03-02T19:46:50;18.80;99.90
38854;DHT22;24606;51.992;4.198;2024-03-02T19:51:52;18.90;99.90
38854;DHT22;24606;51.992;4.198;2024-03-02T19:56:55;18.90;99.90
38854;DHT22;24606;51.992;4.198;2024-03-02T20:01:57;18.70;99.90
38854;DHT22;24606;51.992;4.198;2024-03-02T20:06:59;18.70;99.90
38854;DHT22;24606;51.992;4.198;2024-03-02T20:12:03;18.70;99.90
38854;DHT22;24606;51.992;4.198;2024-03-02T20:17:06;18.80;99.90
38854;DHT22;24606;51.992;4.198;2024-03-02T20:22:08;18.80;99.90
38854;DHT22;24606;51.992;4.198;2024-03-02T20:27:12;18.60;99.90
38854;DHT22;24606;51.992;4.198;2024-03-02T20:32:15;18.50;99.90
38854;DHT22;24606;51.992;4.198;2024-03-02T20:37:18;18.90;99.90
38854;DHT22;24606;51.992;4.198;2024-03-02T20:42:25;18.80;99.90
38854;DHT22;24606;51.992;4.198;2024-03-02T20:47:27;18.80;99.90
38854;DHT22;24606;51.992;4.198;2024-03-02T20:52:30;18.70;99.90
38854;DHT22;24606;51.992;4.198;2024-03-02T20:57:33;18.70;99.90
38854;DHT22;24606;51.992;4.198;2024-03-02T21:02:35;18.70;99.90
38854;DHT22;24606;51.992;4.198;2024-03-02T21:07:38;18.80;99.90
38854;DHT22;24606;51.992;4.198;2024-03-02T21:12:42;18.80;99.90
38854;DHT22;24606;51.992;4.198;2024-03-02T21:17:44;18.80;99.90
38854;DHT22;24606;51.992;4.198;2024-03-02T21:22:46;18.80;99.90
38854;DHT22;24606;51.992;4.198;2024-03-02T21:27:53;18.80;99.90
38854;DHT22;24606;51.992;4.198;2024-03-02T21:32:55;18.70;99.90
38854;DHT22;24606;51.992;4.198;2024-03-02T21:37:57;18.70;99.90
38854;DHT22;24606;51.992;4.198;2024-03-02T21:43:00;18.60;99.90
38854;DHT22;24606;51.992;4.198;2024-03-02T21:48:03;18.60;99.90
38854;DHT22;24606;51.992;4.198;2024-03-02T21:53:05;18.60;99.90
38854;DHT22;24606;51.992;4.198;2024-03-02T21:58:09;18.60;99.90
38854;DHT22;24606;51.992;4.198;2024-03-02T22:03:11;18.50;99.90
38854;DHT22;24606;51.992;4.198;2024-03-02T22:08:14;18.50;99.90
38854;DHT22;24606;51.992;4.198;2024-03-02T22:13:18;18.60;99.90
38854;DHT22;24606;51.992;4.198;2024-03-02T22:18:20;18.80;99.90
38854;DHT22;24606;51.992;4.198;2024-03-02T22:23:22;18.60;99.90
38854;DHT22;24606;51.992;4.198;2024-03-02T22:28:25;18.60;99.90
38854;DHT22;24606;51.992;4.198;2024-03-02T22:33:27;18.50;99.90
38854;DHT22;24606;51.992;4.198;2024-03-02T22:38:29;18.50;99.90
38854;DHT22;24606;51.992;4.198;2024-03-02T22:43:33;18.50;99.90
38854;DHT22;24606;51.992;4.198;2024-03-02T22:48:35;18.40;99.90
38854;DHT22;24606;51.992;4.198;2024-03-02T22:53:37;18.20;99.90
38854;DHT22;24606;51.992;4.198;2024-03-02T22:58:40;18.20;99.90
38854;DHT22;24606;51.992;4.198;2024-03-02T23:03:42;18.30;99.90
38854;DHT22;24606;51.992;4.198;2024-03-02T23:08:44;18.20;99.90
38854;DHT22;24606;51.992;4.198;2024-03-02T23:13:47;17.90;99.90
38854;DHT22;24606;51.992;4.198;2024-03-02T23:18:49;17.80;99.90
38854;DHT22;24606;51.992;4.198;2024-03-02T23:23:52;17.40;99.90
38854;DHT22;24606;51.992;4.198;2024-03-02T23:28:55;16.40;99.90
38854;DHT22;24606;51.992;4.198;2024-03-02T23:33:57;15.90;99.90
38854;DHT22;24606;51.992;4.198;2024-03-02T23:39:04;16.40;99.90
38854;DHT22;24606;51.992;4.198;2024-03-02T23:44:08;16.20;99.90
38854;DHT22;24606;51.992;4.198;2024-03-02T23:49:12;16.40;99.90
38854;DHT22;24606;51.992;4.198;2024-03-02T23:54:14;16.40;99.90
38854;DHT22;24606;51.992;4.198;2024-03-02T23:59:18;16.40;99.90
